Time;durP1;ratioP1;P1;durP2;ratioP2;P2;SDS_P1;SDS_P2;PMS_P1;PMS_P2;Temp;Humidity;BMP_temperature;BMP_pressure;BME280_temperature;BME280_humidity;BME280_pressure;Samples;Min_cycle;Max_cycle;Signal;HPM_P1;HPM_P2
2023/07/20 00:01:38;;;;;;;10.32;5.60;;;19.10;96.50;;;;;;5127599;27;20026;-78
2023/07/20 00:04:04;;;;;;;8.13;5.53;;;18.90;96.80;;;;;;5128499;27;20061;-79
2023/07/20 00:06:30;;;;;;;13.20;5.80;;;18.90;97.00;;;;;;5094643;27;20818;-77
2023/07/20 00:08:55;;;;;;;9.43;5.45;;;18.80;97.10;;;;;;5125273;27;20035;-78
2023/07/20 00:11:25;;;;;;;11.05;5.35;;;18.90;97.00;;;;;;5111518;27;20026;-78
2023/07/20 00:13:50;;;;;;;10.70;6.10;;;19.00;96.70;;;;;;5128812;27;20019;-78
2023/07/20 00:16:16;;;;;;;12.32;5.70;;;19.00;96.60;;;;;;5127571;27;20429;-79
2023/07/20 00:18:42;;;;;;;8.00;6.10;;;19.00;96.70;;;;;;5128579;27;20030;-79
2023/07/20 00:21:09;;;;;;;10.23;5.22;;;18.90;96.90;;;;;;5127448;27;20050;-78
2023/07/20 00:23:35;;;;;;;12.27;4.82;;;18.90;97.00;;;;;;5131716;27;20030;-79
2023/07/20 00:26:00;;;;;;;8.77;5.30;;;18.90;97.20;;;;;;5128234;27;20043;-78
2023/07/20 00:28:26;;;;;;;7.05;5.05;;;18.90;97.20;;;;;;5129006;27;20470;-79
2023/07/20 00:30:52;;;;;;;7.03;5.03;;;19.00;97.40;;;;;;5130740;27;20073;-78
2023/07/20 00:33:18;;;;;;;7.93;4.72;;;19.00;97.20;;;;;;5130330;27;20026;-78
2023/07/20 00:35:44;;;;;;;10.30;5.15;;;19.10;97.00;;;;;;5112472;27;20344;-78
2023/07/20 00:38:10;;;;;;;7.47;4.15;;;19.10;97.00;;;;;;5110142;27;20023;-78
2023/07/20 00:40:39;;;;;;;11.18;5.05;;;19.00;97.10;;;;;;5131296;27;20076;-78
2023/07/20 00:43:05;;;;;;;9.45;5.25;;;18.80;97.50;;;;;;5127403;27;20488;-78
2023/07/20 00:45:32;;;;;;;10.10;5.07;;;18.80;97.60;;;;;;5115028;27;20027;-78
2023/07/20 00:47:58;;;;;;;9.20;5.13;;;19.00;97.40;;;;;;5125590;27;20110;-79
2023/07/20 00:50:26;;;;;;;9.65;5.88;;;19.00;97.30;;;;;;5120751;27;20114;-78
2023/07/20 00:52:54;;;;;;;10.07;5.45;;;19.00;97.30;;;;;;5103815;27;20508;-78
2023/07/20 00:55:20;;;;;;;11.52;5.28;;;19.10;97.30;;;;;;5124387;27;20054;-78
2023/07/20 00:57:46;;;;;;;6.70;5.57;;;19.00;97.40;;;;;;5128929;27;20054;-78
2023/07/20 01:00:12;;;;;;;7.35;5.60;;;18.90;97.50;;;;;;5125198;27;20458;-77
2023/07/20 01:02:37;;;;;;;11.98;6.45;;;19.00;97.40;;;;;;5125025;27;20079;-78
2023/07/20 01:05:06;;;;;;;15.30;6.25;;;18.90;97.40;;;;;;5130663;27;20019;-78
2023/07/20 01:07:34;;;;;;;12.95;7.55;;;19.00;97.40;;;;;;5123694;27;20401;-78
2023/07/20 01:10:12;;;;;;;10.68;7.05;;;19.00;97.20;;;;;;5126637;27;20114;-78
2023/07/20 01:12:42;;;;;;;15.35;7.35;;;18.90;97.30;;;;;;5127920;27;20482;-78
2023/07/20 01:15:09;;;;;;;10.73;7.50;;;19.00;97.30;;;;;;5129443;27;20142;-78
2023/07/20 01:17:35;;;;;;;12.50;7.68;;;18.90;97.20;;;;;;5110070;27;20141;-78
2023/07/20 01:20:01;;;;;;;15.10;8.38;;;19.00;97.30;;;;;;5128680;27;20113;-79
2023/07/20 01:22:32;;;;;;;12.02;7.35;;;18.90;97.30;;;;;;5133774;27;20114;-79
2023/07/20 01:25:25;;;;;;;11.20;7.22;;;19.00;97.40;;;;;;5109396;27;20026;-78
2023/07/20 01:28:10;;;;;;;;;;;19.00;97.30;;;;;;5112930;27;20037;-79
2023/07/20 01:30:54;;;;;;;12.68;8.07;;;18.90;97.40;;;;;;5132908;27;20005;-78
2023/07/20 01:33:21;;;;;;;17.17;8.40;;;18.90;97.40;;;;;;5113818;27;20569;-78
2023/07/20 01:35:59;;;;;;;10.60;7.40;;;18.90;97.50;;;;;;5132219;27;20023;-78
2023/07/20 01:38:26;;;;;;;12.60;8.27;;;18.80;97.70;;;;;;5148387;27;20657;-78
2023/07/20 01:40:52;;;;;;;16.30;8.75;;;18.80;97.70;;;;;;5156140;27;20078;-79
2023/07/20 01:43:18;;;;;;;15.80;9.15;;;18.80;97.70;;;;;;5139804;27;20507;-78
2023/07/20 01:45:44;;;;;;;12.38;8.00;;;18.80;97.70;;;;;;5117255;27;20088;-77
2023/07/20 01:48:10;;;;;;;13.80;8.60;;;18.80;97.80;;;;;;5131632;27;20039;-78
2023/07/20 01:50:36;;;;;;;12.75;8.20;;;18.80;97.80;;;;;;5135914;27;20041;-78
2023/07/20 01:53:01;;;;;;;14.10;9.93;;;18.80;97.70;;;;;;5132074;27;20505;-80
2023/07/20 01:55:27;;;;;;;13.43;8.73;;;18.80;97.80;;;;;;5114480;27;20058;-78
2023/07/20 01:57:54;;;;;;;15.93;8.48;;;18.80;97.80;;;;;;5135970;27;20014;-78
2023/07/20 02:00:23;;;;;;;13.35;8.32;;;18.80;97.80;;;;;;5136691;27;20674;-78
2023/07/20 02:02:49;;;;;;;16.02;8.70;;;18.70;97.90;;;;;;5115933;27;20026;-78
2023/07/20 02:05:15;;;;;;;15.15;8.60;;;18.70;98.00;;;;;;5145569;27;20058;-79
2023/07/20 02:07:41;;;;;;;11.93;8.35;;;18.70;98.10;;;;;;5126462;27;20039;-79
2023/07/20 02:10:07;;;;;;;17.40;8.73;;;18.70;98.10;;;;;;5134726;27;20792;-78
2023/07/20 02:12:32;;;;;;;12.70;8.05;;;18.70;98.20;;;;;;5130212;27;20038;-78
2023/07/20 02:14:58;;;;;;;25.60;9.50;;;18.70;98.20;;;;;;5131729;27;20375;-78
2023/07/20 02:17:23;;;;;;;15.05;8.00;;;18.70;98.30;;;;;;5133495;27;20501;-78
2023/07/20 02:19:53;;;;;;;13.75;7.95;;;18.70;97.90;;;;;;5133293;27;20035;-78
2023/07/20 02:22:19;;;;;;;11.38;7.60;;;18.50;97.70;;;;;;5095751;27;20026;-78
2023/07/20 02:24:44;;;;;;;12.63;8.35;;;18.50;97.90;;;;;;5135751;27;20469;-78
2023/07/20 02:27:10;;;;;;;14.13;7.28;;;18.50;97.90;;;;;;5135611;27;20717;-78
2023/07/20 02:29:36;;;;;;;18.05;7.75;;;18.40;97.90;;;;;;5133572;27;20027;-79
2023/07/20 02:32:02;;;;;;;10.88;7.50;;;18.40;98.10;;;;;;5126089;27;20041;-78
2023/07/20 02:34:30;;;;;;;12.23;7.05;;;18.30;98.00;;;;;;5117001;27;20019;-78
2023/07/20 02:37:00;;;;;;;8.73;6.53;;;18.20;98.10;;;;;;5137089;27;20063;-78
2023/07/20 02:39:27;;;;;;;13.77;6.97;;;18.20;98.20;;;;;;5126827;27;20137;-78
2023/07/20 02:41:53;;;;;;;8.10;6.53;;;18.20;98.10;;;;;;5132218;27;20034;-78
2023/07/20 02:44:19;;;;;;;10.02;7.03;;;18.30;98.10;;;;;;5130191;27;20019;-79
2023/07/20 02:46:45;;;;;;;9.60;6.72;;;18.20;98.00;;;;;;5129364;27;20022;-78
2023/07/20 02:49:11;;;;;;;9.75;7.30;;;18.30;98.10;;;;;;5136050;27;20037;-79
2023/07/20 02:51:36;;;;;;;9.98;6.95;;;18.30;98.00;;;;;;5132579;27;20054;-78
2023/07/20 02:54:03;;;;;;;8.88;6.65;;;18.20;98.10;;;;;;5113726;27;20290;-78
2023/07/20 02:56:29;;;;;;;11.10;6.38;;;18.20;98.10;;;;;;5132712;27;20050;-78
2023/07/20 02:58:54;;;;;;;16.23;7.10;;;18.30;98.10;;;;;;5131182;27;20703;-79
2023/07/20 03:01:20;;;;;;;12.07;6.32;;;18.20;98.10;;;;;;5132794;27;20068;-78
2023/07/20 03:03:46;;;;;;;10.90;7.40;;;18.20;98.00;;;;;;5116163;27;20019;-78
2023/07/20 03:06:16;;;;;;;8.30;6.50;;;18.20;98.10;;;;;;5133433;27;20122;-77
2023/07/20 03:08:45;;;;;;;13.95;6.35;;;18.20;97.90;;;;;;5133408;27;20043;-78
2023/07/20 03:11:11;;;;;;;9.70;6.38;;;18.20;98.00;;;;;;5118795;27;20047;-78
2023/07/20 03:13:36;;;;;;;10.77;6.25;;;18.10;97.90;;;;;;5131023;27;20094;-78
2023/07/20 03:16:02;;;;;;;11.05;6.53;;;18.10;98.20;;;;;;5130852;27;20031;-78
2023/07/20 03:18:27;;;;;;;8.00;6.10;;;18.00;98.20;;;;;;5110881;27;20023;-78
2023/07/20 03:20:53;;;;;;;10.40;6.18;;;17.90;98.60;;;;;;5128732;27;20033;-78
2023/07/20 03:23:18;;;;;;;11.18;5.97;;;17.90;98.70;;;;;;5130767;27;20525;-78
2023/07/20 03:25:44;;;;;;;9.15;6.13;;;17.90;98.50;;;;;;5113196;27;20059;-78
2023/07/20 03:28:12;;;;;;;8.68;5.80;;;17.90;98.50;;;;;;5116585;27;20390;-78
2023/07/20 03:30:38;;;;;;;7.07;5.32;;;17.90;98.50;;;;;;5111813;27;20018;-78
2023/07/20 03:33:03;;;;;;;6.47;5.88;;;17.90;98.40;;;;;;5133940;27;20394;-78
2023/07/20 03:35:29;;;;;;;5.72;5.15;;;17.90;98.40;;;;;;5127696;27;20105;-78
2023/07/20 03:37:55;;;;;;;9.48;5.40;;;17.90;98.20;;;;;;5112147;27;20019;-78
2023/07/20 03:40:20;;;;;;;7.25;5.13;;;17.90;98.10;;;;;;5133598;27;20017;-79
2023/07/20 03:42:46;;;;;;;7.03;5.28;;;17.90;98.00;;;;;;5136081;27;20019;-77
2023/07/20 03:45:12;;;;;;;7.07;4.95;;;17.90;98.10;;;;;;5133155;27;20027;-79
2023/07/20 03:47:37;;;;;;;7.60;5.47;;;17.80;98.20;;;;;;5128867;27;20035;-79
2023/07/20 03:50:06;;;;;;;12.38;5.45;;;17.80;98.10;;;;;;5112544;27;20401;-79
2023/07/20 03:52:32;;;;;;;6.15;4.80;;;17.80;98.10;;;;;;5127893;27;20025;-78
2023/07/20 03:54:58;;;;;;;5.32;4.53;;;17.80;98.10;;;;;;5136018;27;20026;-79
2023/07/20 03:57:23;;;;;;;5.15;4.50;;;17.80;98.10;;;;;;5110564;27;20023;-78
2023/07/20 03:59:49;;;;;;;5.97;4.72;;;17.80;98.10;;;;;;5111431;27;20464;-79
2023/07/20 04:02:14;;;;;;;8.65;4.85;;;17.80;98.00;;;;;;5155096;27;20046;-79
2023/07/20 04:04:41;;;;;;;5.47;4.88;;;17.80;98.10;;;;;;5134641;27;20023;-78
2023/07/20 04:07:07;;;;;;;7.57;5.40;;;17.70;98.20;;;;;;5129651;27;20656;-78
2023/07/20 04:09:33;;;;;;;7.10;5.32;;;17.70;98.20;;;;;;5111103;27;20105;-78
2023/07/20 04:11:58;;;;;;;5.45;4.95;;;17.70;98.40;;;;;;5130670;27;20019;-78
2023/07/20 04:14:24;;;;;;;5.88;4.93;;;17.70;98.40;;;;;;5129362;27;20478;-78
2023/07/20 04:16:51;;;;;;;5.40;4.90;;;17.70;98.40;;;;;;5130571;27;20261;-78
2023/07/20 04:19:17;;;;;;;6.20;4.78;;;17.60;98.50;;;;;;5112858;27;20258;-79
2023/07/20 04:21:48;;;;;;;6.10;4.35;;;17.70;98.70;;;;;;5119380;27;20110;-78
2023/07/20 04:24:13;;;;;;;6.38;4.43;;;17.70;98.50;;;;;;5129392;27;20018;-78
2023/07/20 04:26:39;;;;;;;6.78;4.90;;;17.70;98.40;;;;;;5129194;27;20482;-78
2023/07/20 04:29:04;;;;;;;6.75;4.80;;;17.70;98.50;;;;;;5110583;27;20035;-79
2023/07/20 04:31:33;;;;;;;5.97;4.90;;;17.70;98.30;;;;;;5127676;27;20015;-78
2023/07/20 04:33:58;;;;;;;7.35;4.35;;;17.70;98.20;;;;;;5116758;27;20030;-78
2023/07/20 04:36:24;;;;;;;6.15;4.80;;;17.60;98.30;;;;;;5115216;27;20075;-79
2023/07/20 04:38:49;;;;;;;10.60;3.95;;;17.70;98.40;;;;;;5129051;27;20011;-78
2023/07/20 04:41:15;;;;;;;9.10;3.88;;;17.60;98.20;;;;;;5127751;27;20033;-79
2023/07/20 04:43:42;;;;;;;4.22;3.83;;;17.70;98.10;;;;;;5128691;27;20019;-79
2023/07/20 04:46:09;;;;;;;3.65;3.28;;;17.70;98.00;;;;;;5132376;27;20015;-78
2023/07/20 04:48:37;;;;;;;4.22;3.63;;;17.70;97.80;;;;;;5133006;27;20307;-78
2023/07/20 04:51:03;;;;;;;5.13;2.88;;;17.70;97.70;;;;;;5127001;27;20045;-79
2023/07/20 04:53:28;;;;;;;3.28;2.97;;;17.70;97.60;;;;;;5108849;27;20277;-78
2023/07/20 04:55:54;;;;;;;5.28;2.67;;;17.60;97.70;;;;;;5109644;27;20090;-78
2023/07/20 04:58:21;;;;;;;5.10;3.28;;;17.50;97.90;;;;;;5131643;27;20467;-78
2023/07/20 05:00:53;;;;;;;4.25;3.05;;;17.50;97.90;;;;;;5133896;27;20062;-78
2023/07/20 05:03:19;;;;;;;3.50;3.20;;;17.40;97.90;;;;;;5112455;27;20076;-78
2023/07/20 05:05:44;;;;;;;3.08;2.70;;;17.40;97.90;;;;;;5109705;27;20027;-79
2023/07/20 05:08:13;;;;;;;3.05;2.85;;;17.30;98.10;;;;;;5125154;27;20095;-79
2023/07/20 05:10:38;;;;;;;5.63;2.40;;;17.30;98.20;;;;;;5126934;27;20031;-78
2023/07/20 05:13:04;;;;;;;5.18;2.70;;;17.20;98.30;;;;;;5128295;27;20083;-78
2023/07/20 05:15:32;;;;;;;4.72;3.10;;;17.30;98.20;;;;;;5128150;27;20698;-78
2023/07/20 05:18:00;;;;;;;3.38;3.17;;;17.30;98.00;;;;;;5132303;27;20023;-79
2023/07/20 05:20:26;;;;;;;3.60;3.15;;;17.20;98.00;;;;;;5127479;27;20022;-79
2023/07/20 05:22:52;;;;;;;3.40;3.10;;;17.20;98.30;;;;;;5108343;27;20607;-78
2023/07/20 05:25:22;;;;;;;3.60;3.30;;;17.20;98.10;;;;;;5131358;27;20016;-78
2023/07/20 05:27:52;;;;;;;3.15;2.88;;;17.30;98.10;;;;;;5130009;27;20073;-78
2023/07/20 05:30:18;;;;;;;3.33;3.05;;;17.30;98.00;;;;;;5127340;27;20011;-79
2023/07/20 05:32:50;;;;;;;3.47;2.80;;;17.40;97.80;;;;;;5130719;27;20109;-78
2023/07/20 05:35:19;;;;;;;3.97;3.55;;;17.30;97.60;;;;;;5109464;27;20031;-79
2023/07/20 05:37:45;;;;;;;6.72;4.05;;;17.40;97.70;;;;;;5109594;27;20039;-79
2023/07/20 05:40:12;;;;;;;5.28;3.58;;;17.30;97.40;;;;;;5129919;27;20019;-79
2023/07/20 05:42:38;;;;;;;3.38;3.08;;;17.20;97.50;;;;;;5130913;27;20382;-80
2023/07/20 05:45:04;;;;;;;4.03;3.55;;;17.20;97.50;;;;;;5111300;27;20027;-78
2023/07/20 05:47:30;;;;;;;4.78;3.08;;;17.20;97.60;;;;;;5130064;27;20027;-78
2023/07/20 05:49:56;;;;;;;5.45;3.40;;;17.30;97.40;;;;;;5109209;27;20023;-81
2023/07/20 05:52:21;;;;;;;3.45;3.17;;;17.40;97.30;;;;;;5114310;27;20117;-79
2023/07/20 05:54:47;;;;;;;3.75;3.33;;;17.60;97.00;;;;;;5125465;27;20130;-79
2023/07/20 05:57:13;;;;;;;4.50;3.40;;;17.60;97.00;;;;;;5110973;27;20023;-78
2023/07/20 05:59:40;;;;;;;4.20;3.17;;;17.70;96.90;;;;;;5108121;27;20035;-79
2023/07/20 06:02:07;;;;;;;6.05;3.05;;;17.70;96.80;;;;;;5112584;27;20501;-79
2023/07/20 06:04:32;;;;;;;5.28;3.00;;;17.80;96.70;;;;;;5112824;27;20041;-78
2023/07/20 06:06:58;;;;;;;2.60;2.50;;;17.70;96.60;;;;;;5102962;27;20110;-80
2023/07/20 06:09:24;;;;;;;3.33;3.05;;;17.90;96.50;;;;;;5114197;27;20033;-78
2023/07/20 06:11:49;;;;;;;3.17;2.92;;;18.00;96.20;;;;;;5128281;27;20351;-77
2023/07/20 06:14:15;;;;;;;7.15;2.80;;;17.90;96.20;;;;;;5116719;27;20030;-78
2023/07/20 06:16:41;;;;;;;3.72;2.88;;;18.10;96.10;;;;;;5126524;27;20023;-77
2023/07/20 06:19:06;;;;;;;2.63;2.45;;;18.10;96.20;;;;;;5133760;27;20106;-78
2023/07/20 06:21:32;;;;;;;4.57;2.30;;;18.10;96.20;;;;;;5137649;27;20076;-78
2023/07/20 06:23:58;;;;;;;2.63;2.20;;;18.10;95.90;;;;;;5123848;27;20090;-78
2023/07/20 06:26:24;;;;;;;4.72;2.13;;;18.10;95.80;;;;;;5147501;27;20028;-77
2023/07/20 06:28:49;;;;;;;2.45;2.00;;;18.00;96.00;;;;;;5119958;27;20257;-77
2023/07/20 06:31:17;;;;;;;2.40;1.83;;;18.00;95.90;;;;;;5131840;27;20019;-78
2023/07/20 06:33:43;;;;;;;2.17;2.05;;;18.00;95.70;;;;;;5136917;27;20486;-78
2023/07/20 06:36:09;;;;;;;1.75;1.65;;;18.00;95.70;;;;;;5127619;27;20023;-79
2023/07/20 06:38:35;;;;;;;2.00;1.90;;;18.00;95.70;;;;;;5122349;27;20584;-78
2023/07/20 06:41:01;;;;;;;2.85;2.03;;;18.00;95.60;;;;;;5135430;27;20011;-79
2023/07/20 06:43:26;;;;;;;2.45;2.25;;;18.20;95.30;;;;;;5126690;27;20145;-77
2023/07/20 06:45:55;;;;;;;2.47;2.20;;;18.30;95.10;;;;;;5113059;27;20027;-78
2023/07/20 06:48:22;;;;;;;2.75;2.30;;;18.50;95.00;;;;;;5113660;27;20186;-78
2023/07/20 06:50:47;;;;;;;4.93;2.65;;;18.50;94.60;;;;;;5135268;27;20019;-77
2023/07/20 06:53:13;;;;;;;2.97;2.20;;;18.50;95.20;;;;;;5133728;27;21306;-78
2023/07/20 06:55:39;;;;;;;3.17;2.15;;;18.30;95.00;;;;;;5127776;27;20050;-78
2023/07/20 06:58:05;;;;;;;3.75;2.67;;;18.30;95.10;;;;;;5116996;27;20140;-77
2023/07/20 07:00:30;;;;;;;2.55;2.33;;;18.40;94.90;;;;;;5134322;27;20027;-78
2023/07/20 07:02:56;;;;;;;2.30;2.20;;;18.30;94.80;;;;;;5135844;27;20023;-78
2023/07/20 07:05:22;;;;;;;3.60;2.45;;;18.50;94.80;;;;;;5132338;27;20027;-77
2023/07/20 07:07:47;;;;;;;3.55;2.22;;;18.50;94.70;;;;;;5111234;27;20050;-78
2023/07/20 07:10:13;;;;;;;2.38;1.98;;;18.60;94.70;;;;;;5133651;27;20423;-78
2023/07/20 07:12:39;;;;;;;2.15;2.05;;;18.70;94.20;;;;;;5128671;27;20067;-78
2023/07/20 07:15:10;;;;;;;5.57;2.22;;;18.60;94.10;;;;;;5128937;27;20026;-77
2023/07/20 07:17:36;;;;;;;2.25;2.08;;;18.60;94.30;;;;;;5131566;27;20051;-78
2023/07/20 07:20:03;;;;;;;2.83;1.98;;;18.60;94.60;;;;;;5137286;27;20456;-77
2023/07/20 07:22:29;;;;;;;2.28;2.03;;;18.60;93.80;;;;;;5126181;27;20022;-79
2023/07/20 07:24:55;;;;;;;2.38;2.17;;;18.60;93.50;;;;;;5124986;27;20023;-78
2023/07/20 07:27:20;;;;;;;1.92;1.70;;;18.60;93.70;;;;;;5124941;27;20042;-77
2023/07/20 07:29:46;;;;;;;2.95;2.25;;;18.60;93.50;;;;;;5128066;27;20027;-78
2023/07/20 07:32:12;;;;;;;4.65;1.90;;;18.70;93.00;;;;;;5132233;27;20575;-82
2023/07/20 07:34:38;;;;;;;1.58;1.45;;;18.80;92.80;;;;;;5132792;27;20392;-78
2023/07/20 07:37:05;;;;;;;1.65;1.55;;;19.00;92.80;;;;;;5136003;27;20037;-78
2023/07/20 07:39:33;;;;;;;1.55;1.35;;;19.20;92.10;;;;;;5112751;27;20027;-77
2023/07/20 07:41:58;;;;;;;1.75;1.63;;;19.20;92.30;;;;;;5130272;27;20037;-79
2023/07/20 07:44:24;;;;;;;2.25;1.58;;;19.30;91.90;;;;;;5131334;27;20460;-87
2023/07/20 07:46:53;;;;;;;2.90;1.23;;;19.40;91.70;;;;;;5138074;27;20137;-88
2023/07/20 07:49:19;;;;;;;3.35;1.00;;;19.50;91.20;;;;;;5100747;27;20322;-87
2023/07/20 07:51:45;;;;;;;2.80;1.35;;;19.60;90.20;;;;;;5134583;27;20050;-83
2023/07/20 07:54:10;;;;;;;1.30;1.20;;;19.60;90.40;;;;;;5115648;27;20057;-85
2023/07/20 07:56:36;;;;;;;2.42;1.48;;;19.70;90.90;;;;;;5132717;27;20054;-86
2023/07/20 07:59:02;;;;;;;3.80;1.08;;;19.90;90.30;;;;;;5134360;27;20019;-88
2023/07/20 08:01:28;;;;;;;1.27;0.90;;;20.00;88.90;;;;;;5113098;27;20019;-83
2023/07/20 08:03:54;;;;;;;1.75;1.00;;;20.00;88.40;;;;;;5117503;27;20050;-85
2023/07/20 08:06:19;;;;;;;2.97;0.80;;;20.00;87.20;;;;;;5115312;27;20022;-85
2023/07/20 08:08:47;;;;;;;0.90;0.90;;;20.20;87.20;;;;;;5132494;27;20073;-85
2023/07/20 08:11:13;;;;;;;4.28;1.20;;;20.20;87.20;;;;;;5132166;27;20030;-84
2023/07/20 08:13:38;;;;;;;4.18;1.13;;;20.10;85.70;;;;;;5130159;27;20023;-84
2023/07/20 08:16:04;;;;;;;1.73;0.98;;;20.20;85.60;;;;;;5132632;27;20026;-84
2023/07/20 08:18:31;;;;;;;2.15;1.30;;;20.30;86.80;;;;;;5116833;27;20047;-85
2023/07/20 08:20:57;;;;;;;2.45;1.20;;;20.10;84.70;;;;;;5134501;27;20011;-84
2023/07/20 08:23:22;;;;;;;1.80;0.90;;;20.00;86.90;;;;;;5114318;27;20025;-84
2023/07/20 08:25:48;;;;;;;5.22;1.30;;;20.20;86.10;;;;;;5148090;27;20015;-85
2023/07/20 08:28:15;;;;;;;1.60;1.00;;;20.60;84.50;;;;;;5127652;27;20063;-85
2023/07/20 08:30:43;;;;;;;1.90;0.85;;;20.90;83.40;;;;;;5132516;27;20027;-83
2023/07/20 08:33:10;;;;;;;2.35;1.60;;;21.00;83.80;;;;;;5132259;27;20015;-84
2023/07/20 08:35:36;;;;;;;1.60;1.30;;;21.30;83.60;;;;;;5109376;27;20019;-84
2023/07/20 08:38:04;;;;;;;1.00;0.90;;;21.40;81.60;;;;;;5115694;27;20121;-85
2023/07/20 08:40:38;;;;;;;1.00;1.00;;;21.60;81.40;;;;;;5131559;27;20073;-85
2023/07/20 08:43:04;;;;;;;1.00;0.90;;;21.60;82.00;;;;;;5129602;27;20113;-84
2023/07/20 08:45:34;;;;;;;0.73;0.70;;;21.80;74.40;;;;;;5129515;27;20105;-83
2023/07/20 08:48:03;;;;;;;0.70;0.70;;;21.90;74.60;;;;;;5109311;27;20496;-86
2023/07/20 08:50:30;;;;;;;0.82;0.82;;;21.70;76.40;;;;;;5134303;27;20022;-86
2023/07/20 08:52:58;;;;;;;1.38;0.90;;;21.60;76.10;;;;;;5128122;27;20062;-87
2023/07/20 08:55:26;;;;;;;1.27;1.17;;;21.70;76.10;;;;;;5136053;27;20023;-84
2023/07/20 08:57:56;;;;;;;2.17;0.93;;;21.70;75.40;;;;;;5135147;27;20026;-85
2023/07/20 09:00:23;;;;;;;1.77;0.80;;;21.70;76.30;;;;;;5131612;27;20565;-85
2023/07/20 09:02:56;;;;;;;1.30;0.90;;;22.00;75.90;;;;;;5129844;27;20023;-83
2023/07/20 09:05:24;;;;;;;3.25;1.00;;;22.40;76.10;;;;;;5125570;27;20038;-85
2023/07/20 09:07:55;;;;;;;1.55;1.20;;;22.70;75.40;;;;;;5129377;27;20493;-86
2023/07/20 09:10:24;;;;;;;2.53;1.08;;;23.30;73.20;;;;;;5098219;27;20032;-85
2023/07/20 09:12:49;;;;;;;1.15;1.02;;;23.80;71.40;;;;;;5125903;27;20023;-85
2023/07/20 09:15:16;;;;;;;1.58;1.02;;;24.00;71.00;;;;;;5121022;27;20019;-85
2023/07/20 09:17:53;;;;;;;3.15;1.13;;;24.40;70.40;;;;;;5096966;27;21145;-86
2023/07/20 09:20:20;;;;;;;5.65;1.20;;;24.70;68.30;;;;;;5129491;27;20030;-85
2023/07/20 09:22:46;;;;;;;1.20;1.20;;;24.80;66.90;;;;;;5131119;27;20014;-84
2023/07/20 09:25:22;;;;;;;4.22;1.65;;;24.90;66.80;;;;;;5129602;27;20049;-85
2023/07/20 09:27:49;;;;;;;1.75;1.08;;;24.70;64.30;;;;;;5131516;27;20045;-84
2023/07/20 09:30:18;;;;;;;3.10;1.20;;;24.50;65.60;;;;;;5112831;27;20615;-85
2023/07/20 09:32:45;;;;;;;1.58;1.23;;;24.60;66.90;;;;;;5114510;27;20031;-83
2023/07/20 09:35:22;;;;;;;1.80;1.30;;;25.00;66.60;;;;;;5131343;27;20031;-85
2023/07/20 09:37:57;;;;;;;2.47;1.13;;;25.00;66.00;;;;;;5114261;27;20026;-85
2023/07/20 09:40:24;;;;;;;1.30;1.20;;;24.90;65.10;;;;;;5128115;27;20016;-84
2023/07/20 09:42:53;;;;;;;2.35;1.08;;;24.60;64.40;;;;;;5122591;27;20027;-84
2023/07/20 09:45:21;;;;;;;1.90;1.00;;;24.30;65.50;;;;;;5097151;27;20029;-84
2023/07/20 09:47:51;;;;;;;4.25;0.95;;;24.10;65.60;;;;;;5113577;27;20458;-85
2023/07/20 09:50:16;;;;;;;1.75;0.93;;;24.00;65.40;;;;;;5121480;27;20023;-85
2023/07/20 09:52:44;;;;;;;0.98;0.98;;;24.50;67.40;;;;;;5135223;27;20035;-85
2023/07/20 09:55:11;;;;;;;1.60;1.05;;;25.10;63.10;;;;;;5117265;27;20019;-85
2023/07/20 09:57:37;;;;;;;1.95;1.02;;;24.80;59.80;;;;;;5120390;27;20042;-83
2023/07/20 10:00:15;;;;;;;1.08;1.00;;;25.10;67.30;;;;;;5131643;27;20058;-84
2023/07/20 10:02:45;;;;;;;1.55;1.20;;;25.80;59.70;;;;;;5130025;27;20022;-85
2023/07/20 10:05:13;;;;;;;1.23;0.80;;;26.20;61.60;;;;;;5133699;27;20378;-84
2023/07/20 10:07:50;;;;;;;13.43;6.40;;;26.30;61.90;;;;;;5128555;27;20436;-83
2023/07/20 10:10:17;;;;;;;1.00;1.00;;;26.50;58.50;;;;;;5133676;27;20375;-82
2023/07/20 10:12:44;;;;;;;95.35;39.15;;;26.20;58.50;;;;;;5109901;27;20080;-81
2023/07/20 10:15:22;;;;;;;1.77;1.10;;;26.10;58.80;;;;;;5121985;27;20027;-85
2023/07/20 10:18:14;;;;;;;3.75;0.82;;;26.00;58.30;;;;;;5125700;27;20462;-81
2023/07/20 10:20:41;;;;;;;2.13;1.20;;;26.40;57.60;;;;;;5108167;27;20023;-83
2023/07/20 10:23:07;;;;;;;0.80;0.80;;;26.70;56.90;;;;;;5113871;27;20443;-83
2023/07/20 10:25:41;;;;;;;0.85;0.85;;;26.90;57.70;;;;;;5128843;27;20038;-84
2023/07/20 10:28:07;;;;;;;1.13;1.10;;;27.30;58.80;;;;;;5110105;27;20034;-83
2023/07/20 10:30:36;;;;;;;0.95;0.95;;;27.50;54.80;;;;;;5113902;27;20427;-84
2023/07/20 10:33:05;;;;;;;1.10;0.93;;;27.40;56.20;;;;;;5129777;27;20102;-84
2023/07/20 10:35:51;;;;;;;1.35;1.10;;;27.80;55.00;;;;;;5110394;27;20530;-83
2023/07/20 10:38:17;;;;;;;1.15;1.00;;;28.20;56.00;;;;;;5127555;27;20045;-81
2023/07/20 10:40:42;;;;;;;1.55;1.00;;;28.60;56.30;;;;;;5133475;27;20027;-82
2023/07/20 10:43:09;;;;;;;2.65;1.80;;;28.60;52.60;;;;;;5129541;27;20038;-83
2023/07/20 10:45:58;;;;;;;1.65;1.00;;;28.10;54.40;;;;;;5102718;27;20022;-82
2023/07/20 10:48:25;;;;;;;1.27;1.17;;;27.60;54.40;;;;;;5112042;27;20039;-83
2023/07/20 10:51:09;;;;;;;0.80;0.80;;;26.50;55.70;;;;;;5124685;27;20372;-81
2023/07/20 10:53:34;;;;;;;3.75;0.80;;;25.50;57.80;;;;;;5111932;27;20084;-83
2023/07/20 10:56:16;;;;;;;3.08;0.90;;;25.30;58.80;;;;;;5131860;27;20027;-82
2023/07/20 10:58:42;;;;;;;0.70;0.70;;;25.20;60.90;;;;;;5135037;27;20028;-82
2023/07/20 11:01:08;;;;;;;1.23;1.13;;;25.30;58.80;;;;;;5116737;27;20130;-83
2023/07/20 11:03:38;;;;;;;0.75;0.75;;;25.90;57.30;;;;;;5134198;27;20415;-83
2023/07/20 11:06:26;;;;;;;0.90;0.90;;;26.50;56.50;;;;;;5105191;27;20012;-82
2023/07/20 11:09:03;;;;;;;1.00;1.00;;;26.80;57.50;;;;;;5103131;27;20466;-82
2023/07/20 11:11:35;;;;;;;1.10;1.00;;;27.00;55.80;;;;;;5097661;27;20020;-83
2023/07/20 11:14:20;;;;;;;0.88;0.82;;;27.30;54.40;;;;;;5093049;27;20061;-82
2023/07/20 11:16:47;;;;;;;1.88;0.95;;;27.70;54.60;;;;;;5090042;27;20115;-81
2023/07/20 11:19:24;;;;;;;14.95;6.78;;;28.10;56.40;;;;;;5094715;28;20080;-81
2023/07/20 11:21:52;;;;;;;1.42;1.17;;;28.60;52.80;;;;;;5073060;28;20111;-81
2023/07/20 11:24:18;;;;;;;1.38;1.10;;;28.70;54.50;;;;;;5091108;28;20638;-82
2023/07/20 11:26:54;;;;;;;1.17;1.00;;;28.70;53.40;;;;;;5098631;27;20019;-83
2023/07/20 11:29:26;;;;;;;0.85;0.85;;;28.40;52.90;;;;;;5094909;27;20036;-82
2023/07/20 11:31:52;;;;;;;0.90;0.90;;;28.30;53.10;;;;;;5096636;27;20031;-82
2023/07/20 11:34:20;;;;;;;0.90;0.90;;;28.20;52.50;;;;;;5093350;27;20024;-82
2023/07/20 11:36:50;;;;;;;1.65;1.10;;;27.70;53.60;;;;;;5093878;27;20031;-83
2023/07/20 11:39:21;;;;;;;0.70;0.70;;;28.00;53.20;;;;;;5082046;28;20035;-83
2023/07/20 11:41:57;;;;;;;0.88;0.88;;;27.90;52.10;;;;;;5094343;28;20123;-82
2023/07/20 11:44:28;;;;;;;1.23;1.10;;;28.00;52.90;;;;;;5073238;28;20055;-82
2023/07/20 11:47:07;;;;;;;1.00;1.00;;;28.20;52.80;;;;;;5092964;27;20019;-82
2023/07/20 11:49:37;;;;;;;1.02;0.95;;;28.60;51.60;;;;;;5091900;28;20084;-83
2023/07/20 11:52:05;;;;;;;0.80;0.80;;;28.40;52.00;;;;;;5093934;28;20103;-83
2023/07/20 11:54:34;;;;;;;3.75;1.60;;;27.90;50.50;;;;;;5087997;27;20028;-82
2023/07/20 11:57:03;;;;;;;2.25;1.00;;;27.50;52.90;;;;;;5095780;27;20080;-83
2023/07/20 11:59:31;;;;;;;1.02;0.98;;;27.30;53.60;;;;;;5097348;27;20077;-82
2023/07/20 12:01:58;;;;;;;1.23;0.82;;;27.20;53.80;;;;;;5082662;28;20028;-83
2023/07/20 12:04:24;;;;;;;0.90;0.90;;;27.20;53.70;;;;;;5096616;27;20223;-82
2023/07/20 12:06:52;;;;;;;0.85;0.85;;;27.30;52.60;;;;;;5091733;28;20038;-83
2023/07/20 12:09:17;;;;;;;0.80;0.80;;;27.30;52.80;;;;;;5095790;27;20043;-83
2023/07/20 12:11:47;;;;;;;0.60;0.60;;;27.20;54.20;;;;;;5090325;28;20024;-83
2023/07/20 12:14:12;;;;;;;1.67;0.80;;;27.10;53.60;;;;;;5097312;27;20398;-83
2023/07/20 12:16:41;;;;;;;0.80;0.80;;;26.80;53.20;;;;;;5093435;28;20901;-82
2023/07/20 12:19:08;;;;;;;0.90;0.90;;;26.60;53.80;;;;;;5092100;27;20020;-83
2023/07/20 12:21:39;;;;;;;0.70;0.70;;;26.50;54.90;;;;;;5093944;27;20055;-83
2023/07/20 12:24:06;;;;;;;0.80;0.80;;;26.40;54.30;;;;;;5097650;27;20661;-82
2023/07/20 12:26:33;;;;;;;1.58;0.90;;;26.00;55.00;;;;;;5094642;27;20039;-83
2023/07/20 12:28:59;;;;;;;2.45;0.77;;;25.40;57.40;;;;;;5094701;27;20028;-83
2023/07/20 12:31:26;;;;;;;2.72;1.08;;;25.30;56.90;;;;;;5092487;28;20107;-83
2023/07/20 12:33:55;;;;;;;2.03;1.10;;;25.20;57.10;;;;;;5082223;27;20032;-82
2023/07/20 12:36:23;;;;;;;1.13;0.85;;;25.10;57.60;;;;;;5094779;28;20019;-82
2023/07/20 12:38:49;;;;;;;1.20;1.00;;;25.30;57.70;;;;;;5094744;27;20019;-82
2023/07/20 12:41:14;;;;;;;0.80;0.80;;;25.60;57.00;;;;;;5093935;28;20383;-82
2023/07/20 12:43:44;;;;;;;0.95;0.90;;;26.00;57.70;;;;;;5092926;28;20020;-82
2023/07/20 12:46:13;;;;;;;0.80;0.80;;;26.20;56.70;;;;;;5093768;27;20019;-83
2023/07/20 12:48:41;;;;;;;1.33;0.90;;;26.20;55.70;;;;;;5075386;28;20039;-83